createdAt,value
2022-11-12T00:01:08.048Z,99992.63
2022-11-12T00:03:35.320Z,99998.78
2022-11-12T00:06:03.347Z,100003.28
2022-11-12T00:08:31.280Z,100007.59
2022-11-12T00:10:58.593Z,100012.94
2022-11-12T00:13:26.431Z,100013.94
2022-11-12T00:15:53.696Z,100008.59
2022-11-12T00:18:20.965Z,100003.28
2022-11-12T00:20:48.904Z,100001.59
2022-11-12T00:23:16.236Z,100000.63
2022-11-12T00:25:43.979Z,99994.63
2022-11-12T00:28:11.821Z,99996.25
2022-11-12T00:30:40.531Z,99991.94
2022-11-12T00:33:08.481Z,99998.94
2022-11-12T00:35:36.836Z,99990.09
2022-11-12T00:38:04.186Z,99991.94
2022-11-12T00:40:31.767Z,99991.94
2022-11-12T00:42:59.108Z,99989.28
2022-11-12T00:45:26.417Z,99994.63
2022-11-12T00:47:58.114Z,99994.63
2022-11-12T00:50:25.696Z,99988.44
2022-11-12T00:52:54.080Z,99987.59
2022-11-12T00:55:21.628Z,99984.94
2022-11-12T00:57:48.951Z,99993.78
2022-11-12T01:00:18.533Z,99988.44
2022-11-12T01:02:50.642Z,99990.25
2022-11-12T01:05:19.972Z,99991.28
2022-11-12T01:07:53.079Z,99985.13
2022-11-12T01:10:22.031Z,99985.94
2022-11-12T01:12:50.501Z,99985.94
2022-11-12T01:15:17.848Z,99985.13
2022-11-12T01:17:45.398Z,99989.44
2022-11-12T01:20:12.651Z,99985.94
2022-11-12T01:22:40.188Z,99994.94
2022-11-12T01:25:07.966Z,99996.59
2022-11-12T01:27:35.171Z,99987.94
2022-11-12T01:30:02.726Z,99994.94
2022-11-12T01:32:33.734Z,99993.25
2022-11-12T01:35:00.953Z,99988.75
2022-11-12T01:37:28.220Z,99994.28
2022-11-12T01:39:55.753Z,99993.25
2022-11-12T01:42:30.084Z,99995.09
2022-11-12T01:44:57.679Z,99999.41
2022-11-12T01:47:26.592Z,99998.59
2022-11-12T01:50:01.377Z,99991.59
2022-11-12T01:52:38.883Z,99997.75
2022-11-12T01:55:22.539Z,99992.44
2022-11-12T01:57:57.862Z,99995.94
2022-11-12T02:00:25.239Z,99989.94
2022-11-12T02:02:55.712Z,99996.09
2022-11-12T02:05:25.300Z,99994.44
2022-11-12T02:07:53.565Z,99994.44
2022-11-12T02:10:22.249Z,99996.94
2022-11-12T02:13:12.000Z,99997.91
2022-11-12T02:15:41.428Z,99996.09
2022-11-12T02:18:09.362Z,99992.59
2022-11-12T02:20:38.780Z,99998.94
2022-11-12T02:23:07.717Z,99998.94
2022-11-12T02:25:36.020Z,99996.09
2022-11-12T02:28:06.539Z,99993.59
2022-11-12T02:30:37.460Z,99993.59
2022-11-12T02:33:04.766Z,100005.91
2022-11-12T02:35:32.528Z,100003.41
2022-11-12T02:38:00.127Z,100002.56
2022-11-12T02:40:27.821Z,100003.41
2022-11-12T02:42:55.109Z,99999.91
2022-11-12T02:45:22.976Z,100000.72
2022-11-12T02:47:50.429Z,99997.25
2022-11-12T02:50:18.080Z,99998.94
2022-11-12T02:52:45.873Z,99994.56
2022-11-12T02:55:13.796Z,100000.91
2022-11-12T02:57:42.035Z,99999.91
2022-11-12T03:00:12.493Z,99995.59
2022-11-12T03:02:42.841Z,99994.72
2022-11-12T03:05:11.614Z,99999.22
2022-11-12T03:07:39.119Z,99999.22
2022-11-12T03:10:06.982Z,99990.25
2022-11-12T03:12:34.501Z,99993.91
2022-11-12T03:15:03.208Z,99997.56
2022-11-12T03:17:30.464Z,100001.22
2022-11-12T03:19:57.978Z,99994.91
2022-11-12T03:22:25.338Z,99999.41
2022-11-12T03:24:52.881Z,99994.91
2022-11-12T03:27:20.105Z,99995.88
2022-11-12T03:29:48.056Z,99998.56
2022-11-12T03:32:15.294Z,99998.56
2022-11-12T03:34:42.633Z,99990.56
2022-11-12T03:37:10.348Z,99995.88
2022-11-12T03:39:37.918Z,100001.22
2022-11-12T03:42:05.604Z,99995.06
2022-11-12T03:44:34.640Z,99995.06
2022-11-12T03:47:02.633Z,99985.22
2022-11-12T03:49:29.963Z,99983.59
2022-11-12T03:51:57.497Z,99983.59
2022-11-12T03:54:24.773Z,99976.56
2022-11-12T03:56:52.305Z,99981.06
2022-11-12T03:59:19.676Z,99981.91
2022-11-12T04:01:47.355Z,99981.91
2022-11-12T04:04:14.891Z,99979.22
2022-11-12T04:07:01.046Z,99981.91
2022-11-12T04:09:28.708Z,99981.06
2022-11-12T04:12:15.925Z,99974.09
2022-11-12T04:14:43.813Z,99974.91
2022-11-12T04:17:29.333Z,99981.06
2022-11-12T04:20:15.216Z,99980.25
2022-11-12T04:22:42.482Z,99977.72
2022-11-12T04:25:28.472Z,99978.56
2022-11-12T04:27:55.791Z,99977.72
2022-11-12T04:30:23.252Z,99978.56
2022-11-12T04:32:54.566Z,99981.41
2022-11-12T04:35:25.688Z,99979.56
2022-11-12T04:37:53.574Z,99982.22
2022-11-12T04:40:42.218Z,99974.38
2022-11-12T04:43:30.566Z,99977.88
2022-11-12T04:45:58.845Z,99970.75
2022-11-12T04:48:26.768Z,99975.22
2022-11-12T04:50:59.120Z,99974.38
2022-11-12T04:53:28.411Z,99973.56
2022-11-12T04:55:57.779Z,99968.22
2022-11-12T04:58:26.005Z,99974.38
2022-11-12T05:00:53.932Z,99967.41
2022-11-12T05:03:21.486Z,99968.22
2022-11-12T05:05:48.705Z,99963.91
2022-11-12T05:08:16.261Z,99962.06
2022-11-12T05:10:44.686Z,99969.25
2022-11-12T05:13:11.916Z,99969.41
2022-11-12T05:15:39.441Z,99971.91
2022-11-12T05:18:06.778Z,99970.22
2022-11-12T05:20:35.283Z,99968.38
2022-11-12T05:23:07.407Z,99972.88
2022-11-12T05:25:35.983Z,99979.22
2022-11-12T05:28:03.301Z,99973.91
2022-11-12T05:30:30.832Z,99973.91
2022-11-12T05:32:58.175Z,99971.22
2022-11-12T05:35:25.391Z,99977.53
2022-11-12T05:37:53.064Z,99981.88
2022-11-12T05:40:20.296Z,99980.06
2022-11-12T05:42:47.707Z,99980.19
2022-11-12T05:45:15.304Z,99982.03
2022-11-12T05:47:42.567Z,99978.56
2022-11-12T05:50:10.677Z,99990.19
2022-11-12T05:52:38.034Z,99991.88
2022-11-12T05:55:06.673Z,99990.19
2022-11-12T05:57:33.936Z,99993.84
2022-11-12T06:00:01.429Z,99990.34
2022-11-12T06:02:29.081Z,99997.50
2022-11-12T06:04:56.432Z,99992.16
2022-11-12T06:07:23.677Z,100000.16
2022-11-12T06:09:51.237Z,100008.16
2022-11-12T06:12:18.668Z,100013.47
2022-11-12T06:14:46.353Z,100009.84
2022-11-12T06:17:13.555Z,100008.16
2022-11-12T06:19:40.980Z,100011.81
2022-11-12T06:22:08.496Z,100011.81
2022-11-12T06:24:35.872Z,100015.47
2022-11-12T06:27:03.111Z,100019.81
2022-11-12T06:29:30.748Z,100024.31
2022-11-12T06:31:57.960Z,100023.31
2022-11-12T06:34:25.451Z,100017.16
2022-11-12T06:36:53.644Z,100016.31
2022-11-12T06:39:20.979Z,100017.16
2022-11-12T06:41:48.540Z,100021.47
2022-11-12T06:44:20.896Z,100017.16
2022-11-12T06:46:49.815Z,100020.66
2022-11-12T06:49:17.081Z,100022.47
2022-11-12T06:51:44.404Z,100025.16
2022-11-12T06:54:11.907Z,100033.97
2022-11-12T06:56:40.961Z,100033.13
2022-11-12T06:59:08.209Z,100032.94
2022-11-12T07:01:35.895Z,100036.63
2022-11-12T07:04:03.665Z,100040.94
2022-11-12T07:06:30.954Z,100045.44
2022-11-12T07:08:58.512Z,100047.13
2022-11-12T07:11:25.776Z,100036.47
2022-11-12T07:13:53.302Z,100039.81
2022-11-12T07:16:20.637Z,100034.50
2022-11-12T07:18:49.437Z,100031.81
2022-11-12T07:21:19.259Z,100030.81
2022-11-12T07:23:47.545Z,100037.84
2022-11-12T07:26:18.044Z,100034.16
2022-11-12T07:28:46.201Z,100034.16
2022-11-12T07:31:15.856Z,100028.84
2022-11-12T07:33:44.709Z,100032.66
2022-11-12T07:36:15.935Z,100037.47
2022-11-12T07:38:44.516Z,100033.13
2022-11-12T07:41:14.649Z,100028.63
2022-11-12T07:43:44.151Z,100036.47
2022-11-12T07:46:23.312Z,100038.13
2022-11-12T07:48:51.684Z,100040.66
2022-11-12T07:51:25.224Z,100048.50
2022-11-12T07:53:58.911Z,100050.16
2022-11-12T07:56:28.343Z,100049.81
2022-11-12T07:58:56.079Z,100041.53
2022-11-12T08:01:38.034Z,100048.50
2022-11-12T08:04:08.386Z,100044.84
2022-11-12T08:06:36.397Z,100050.03
2022-11-12T08:09:06.967Z,100050.88
2022-11-12T08:11:34.940Z,100047.19
2022-11-12T08:14:02.781Z,100044.38
2022-11-12T08:16:30.863Z,100050.53
2022-11-12T08:18:58.472Z,100053.03
2022-11-12T08:21:25.848Z,100051.22
2022-11-12T08:23:53.501Z,100058.91
2022-11-12T08:26:21.194Z,100060.72
2022-11-12T08:28:48.835Z,100069.22
2022-11-12T08:31:19.636Z,100065.56
2022-11-12T08:33:47.378Z,100058.56
2022-11-12T08:36:17.345Z,100060.22
2022-11-12T08:38:45.577Z,100058.56
2022-11-12T08:41:14.617Z,100067.53
2022-11-12T08:43:42.409Z,100070.88
2022-11-12T08:46:10.121Z,100071.56
2022-11-12T08:48:40.007Z,100060.91
2022-11-12T08:51:07.584Z,100068.91
2022-11-12T08:53:35.418Z,100066.94
2022-11-12T08:56:03.099Z,100058.94
2022-11-12T08:58:30.920Z,100064.94
2022-11-12T09:01:05.950Z,100064.66
2022-11-12T09:03:33.540Z,100067.31
2022-11-12T09:06:04.392Z,100075.31
2022-11-12T09:08:34.241Z,100071.63
2022-11-12T09:11:01.548Z,100069.97
2022-11-12T09:13:29.328Z,100065.47
2022-11-12T09:16:01.619Z,100064.66
2022-11-12T09:18:29.784Z,100063.63
2022-11-12T09:21:02.401Z,100060.97
2022-11-12T09:23:30.143Z,100060.97
2022-11-12T09:25:57.962Z,100059.31
2022-11-12T09:28:26.066Z,100059.31
2022-11-12T09:30:55.141Z,100060.97
2022-11-12T09:33:27.041Z,100052.31
2022-11-12T09:35:54.925Z,100060.13
2022-11-12T09:38:22.842Z,100054.97
2022-11-12T09:40:53.010Z,100055.63
2022-11-12T09:43:27.464Z,100055.63
2022-11-12T09:46:21.991Z,100046.66
2022-11-12T09:48:55.747Z,100052.00
2022-11-12T09:51:28.461Z,100057.31
2022-11-12T09:54:04.533Z,100057.31
2022-11-12T09:56:31.846Z,100056.31
2022-11-12T09:58:59.483Z,100055.50
2022-11-12T10:01:55.031Z,100060.66
2022-11-12T10:04:40.746Z,100053.66
2022-11-12T10:07:33.395Z,100056.31
2022-11-12T10:10:09.302Z,100048.16
2022-11-12T10:12:57.143Z,100052.66
2022-11-12T10:15:57.579Z,100054.31
2022-11-12T10:19:02.311Z,100061.31
2022-11-12T10:21:40.483Z,100050.66
2022-11-12T10:24:10.353Z,100047.00
2022-11-12T10:26:39.943Z,100043.50
2022-11-12T10:29:35.368Z,100044.34
2022-11-12T10:32:03.594Z,100042.66
2022-11-12T10:34:35.841Z,100040.66
2022-11-12T10:37:13.980Z,100033.69
2022-11-12T10:39:44.213Z,100037.00
2022-11-12T10:42:16.713Z,100042.34
2022-11-12T10:44:45.180Z,100039.69
2022-11-12T10:47:28.052Z,100035.31
2022-11-12T10:50:14.068Z,100030.00
2022-11-12T10:52:54.118Z,100041.53
2022-11-12T10:55:23.236Z,100037.00
2022-11-12T10:58:07.383Z,100038.66
2022-11-12T11:00:34.787Z,100044.84
2022-11-12T11:03:06.272Z,100044.00
2022-11-12T11:05:48.552Z,100036.84
2022-11-12T11:09:00.295Z,100037.69
2022-11-12T11:11:30.352Z,100035.03
2022-11-12T11:14:23.924Z,100035.84
2022-11-12T11:17:02.169Z,100036.69
2022-11-12T11:19:36.840Z,100033.03
2022-11-12T11:22:14.663Z,100037.53
2022-11-12T11:25:12.092Z,100032.03
2022-11-12T11:27:49.571Z,100032.03
2022-11-12T11:30:19.958Z,100023.88
2022-11-12T11:33:05.812Z,100020.53
2022-11-12T11:35:39.301Z,100022.03
2022-11-12T11:38:22.265Z,100021.19
2022-11-12T11:41:13.246Z,100035.34
2022-11-12T11:44:13.710Z,100035.22
2022-11-12T11:47:06.352Z,100013.06
2022-11-12T11:49:42.412Z,100013.06
2022-11-12T11:52:53.258Z,100009.38
2022-11-12T11:55:28.665Z,100014.69
2022-11-12T11:58:19.471Z,100011.88
2022-11-12T12:01:04.690Z,100012.72
2022-11-12T12:03:53.627Z,100018.88
2022-11-12T12:06:30.373Z,100007.72
2022-11-12T12:09:35.281Z,100006.56
2022-11-12T12:12:30.082Z,100008.06
2022-11-12T12:15:37.612Z,100006.56
2022-11-12T12:18:26.402Z,100009.38
2022-11-12T12:21:21.899Z,100009.38
2022-11-12T12:23:49.190Z,100002.38
2022-11-12T12:26:27.288Z,100002.38
2022-11-12T12:29:02.013Z,100005.88
2022-11-12T12:31:36.845Z,100005.06
2022-11-12T12:34:20.817Z,100001.38
2022-11-12T12:36:52.277Z,100007.38
2022-11-12T12:39:26.273Z,100001.22
2022-11-12T12:42:06.271Z,99997.06
2022-11-12T12:45:01.920Z,99997.06
2022-11-12T12:47:43.259Z,99997.06
2022-11-12T12:50:17.986Z,99984.56
2022-11-12T12:53:05.577Z,99989.06
2022-11-12T12:55:44.371Z,99980.19
2022-11-12T12:58:25.416Z,99974.03
2022-11-12T13:01:04.416Z,99974.03
2022-11-12T13:03:48.671Z,99974.03
2022-11-12T13:06:29.276Z,99974.88
2022-11-12T13:08:59.896Z,99969.53
2022-11-12T13:12:01.229Z,99965.22
2022-11-12T13:14:34.874Z,99971.53
2022-11-12T13:17:13.122Z,99976.72
2022-11-12T13:19:52.906Z,99972.38
2022-11-12T13:22:20.193Z,99972.38
2022-11-12T13:25:06.626Z,99965.38
2022-11-12T13:27:40.157Z,99974.19
2022-11-12T13:30:08.602Z,99976.72
2022-11-12T13:32:42.022Z,99973.22
2022-11-12T13:35:23.270Z,99971.38
2022-11-12T13:38:08.788Z,99981.06
2022-11-12T13:40:41.455Z,99978.53
2022-11-12T13:43:22.235Z,99979.38
2022-11-12T13:46:02.637Z,99988.38
2022-11-12T13:48:47.040Z,99988.38
2022-11-12T13:51:24.084Z,99987.53
2022-11-12T13:53:51.380Z,99980.38
2022-11-12T13:56:30.516Z,99978.69
2022-11-12T13:59:18.454Z,99971.53
2022-11-12T14:01:47.241Z,99969.06
2022-11-12T14:04:18.105Z,99970.69
2022-11-12T14:07:08.180Z,99962.69
2022-11-12T14:10:18.555Z,99960.03
2022-11-12T14:12:45.782Z,99961.72
2022-11-12T14:15:25.788Z,99959.22
2022-11-12T14:18:17.374Z,99959.38
2022-11-12T14:20:44.992Z,99963.72
2022-11-12T14:23:24.134Z,99968.03
2022-11-12T14:25:54.765Z,99960.22
2022-11-12T14:28:30.787Z,99958.38
2022-11-12T14:30:59.944Z,99967.38
2022-11-12T14:33:29.649Z,99956.69
2022-11-12T14:36:06.430Z,99956.69
2022-11-12T14:38:40.175Z,99961.22
2022-11-12T14:41:08.976Z,99962.03
2022-11-12T14:43:44.120Z,99949.72
2022-11-12T14:46:34.842Z,99945.22
2022-11-12T14:49:15.971Z,99952.38
2022-11-12T14:51:50.071Z,99956.03
2022-11-12T14:54:31.878Z,99955.34
2022-11-12T14:57:02.688Z,99954.38
2022-11-12T14:59:31.396Z,99952.69
2022-11-12T15:04:58.692Z,99950.88
2022-11-12T15:07:28.897Z,99958.03
2022-11-12T15:09:56.513Z,99965.19
2022-11-12T15:12:26.887Z,99962.69
2022-11-12T15:15:07.211Z,99955.53
2022-11-12T15:17:37.101Z,99957.34
2022-11-12T15:20:13.447Z,99953.19
2022-11-12T15:22:41.397Z,99951.53
2022-11-12T15:25:20.711Z,99953.38
2022-11-12T15:27:49.340Z,99950.03
2022-11-12T15:30:23.829Z,99956.19
2022-11-12T15:33:07.568Z,99951.03
2022-11-12T15:35:37.116Z,99947.38
2022-11-12T15:38:10.998Z,99954.50
2022-11-12T15:40:43.840Z,99951.84
2022-11-12T15:43:18.398Z,99968.03
2022-11-12T15:45:53.574Z,99962.69
2022-11-12T15:48:21.951Z,99958.34
2022-11-12T15:50:49.781Z,99963.00
2022-11-12T15:53:17.758Z,99966.53
2022-11-12T15:55:45.786Z,99960.34
2022-11-12T15:58:27.127Z,99960.34
2022-11-12T16:00:54.485Z,99967.34
2022-11-12T16:03:22.540Z,99979.66
2022-11-12T16:05:49.890Z,99978.00
2022-11-12T16:08:17.172Z,99979.66
2022-11-12T16:10:46.298Z,99987.66
2022-11-12T16:13:26.266Z,99991.50
2022-11-12T16:15:54.822Z,99985.34
2022-11-12T16:18:22.724Z,99980.94
2022-11-12T16:20:50.394Z,99985.59
2022-11-12T16:23:17.721Z,99990.09
2022-11-12T16:25:45.760Z,99992.78
2022-11-12T16:28:15.879Z,99976.94
2022-11-12T16:30:44.178Z,99983.44
2022-11-12T16:33:13.063Z,99972.78
2022-11-12T16:35:40.771Z,99966.63
2022-11-12T16:38:16.406Z,99979.94
2022-11-12T16:40:45.214Z,99976.44
2022-11-12T16:43:13.345Z,99979.25
2022-11-12T16:45:43.080Z,99986.28
2022-11-12T16:48:15.606Z,99979.25
2022-11-12T16:50:43.377Z,99981.09
2022-11-12T16:53:10.817Z,99988.28
2022-11-12T16:55:38.472Z,99992.75
2022-11-12T16:58:05.799Z,99990.25
2022-11-12T17:00:33.366Z,100000.91
2022-11-12T17:03:00.902Z,99999.22
2022-11-12T17:05:28.353Z,100006.25
2022-11-12T17:07:57.735Z,100007.22
2022-11-12T17:10:25.493Z,100012.75
2022-11-12T17:12:53.071Z,100011.88
2022-11-12T17:15:20.879Z,100009.41
2022-11-12T17:17:48.238Z,100009.41
2022-11-12T17:20:15.780Z,100011.38
2022-11-12T17:22:43.337Z,100014.88
2022-11-12T17:25:10.634Z,100017.53
2022-11-12T17:27:38.353Z,100012.22
2022-11-12T17:30:06.440Z,100010.53
2022-11-12T17:32:33.682Z,100009.69
2022-11-12T17:35:01.218Z,100008.88
2022-11-12T17:37:28.527Z,100002.72
2022-11-12T17:39:56.040Z,100005.38
2022-11-12T17:42:23.275Z,99999.19
2022-11-12T17:44:50.846Z,100001.03
2022-11-12T17:47:18.121Z,99995.69
2022-11-12T17:49:45.561Z,100000.19
2022-11-12T17:52:13.156Z,99998.56
2022-11-12T17:54:40.500Z,100001.22
2022-11-12T17:57:07.817Z,99991.53
2022-11-12T17:59:35.384Z,99999.38
2022-11-12T18:02:02.632Z,100004.69
2022-11-12T18:04:31.144Z,99987.91
2022-11-12T18:06:59.167Z,99996.88
2022-11-12T18:09:26.412Z,99994.19
2022-11-12T18:11:57.659Z,99996.88
2022-11-12T18:14:25.985Z,99991.53
2022-11-12T18:16:53.546Z,99996.03
2022-11-12T18:19:20.839Z,99997.69
2022-11-12T18:21:48.436Z,99990.72
2022-11-12T18:24:16.462Z,99999.69
2022-11-12T18:26:44.429Z,99998.84
2022-11-12T18:29:12.646Z,100000.53
2022-11-12T18:31:40.606Z,99999.69
2022-11-12T18:34:13.450Z,100010.34
2022-11-12T18:36:41.109Z,100008.53
2022-11-12T18:39:08.675Z,100010.34
2022-11-12T18:41:36.021Z,100011.19
2022-11-12T18:44:03.590Z,100009.50
2022-11-12T18:46:30.878Z,100008.69
2022-11-12T18:48:58.493Z,100007.84
2022-11-12T18:51:25.784Z,100011.50
2022-11-12T18:53:53.079Z,100013.19
2022-11-12T18:56:22.048Z,100011.50
2022-11-12T18:58:49.530Z,100016.81
2022-11-12T19:01:20.893Z,100022.97
2022-11-12T19:03:53.625Z,100025.81
2022-11-12T19:06:21.426Z,100030.28
2022-11-12T19:08:49.046Z,100034.78
2022-11-12T19:11:19.092Z,100041.81
2022-11-12T19:13:50.882Z,100038.28
2022-11-12T19:16:20.164Z,100038.47
2022-11-12T19:18:47.891Z,100045.44
2022-11-12T19:21:18.128Z,100038.47
2022-11-12T19:23:50.030Z,100049.13
2022-11-12T19:26:21.905Z,100048.28
2022-11-12T19:28:49.507Z,100047.44
2022-11-12T19:31:19.972Z,100051.78
2022-11-12T19:33:47.814Z,100053.63
2022-11-12T19:36:18.001Z,100049.13
2022-11-12T19:38:45.630Z,100049.78
2022-11-12T19:41:19.667Z,100048.78
2022-11-12T19:43:47.973Z,100053.81
2022-11-12T19:46:15.960Z,100053.47
2022-11-12T19:48:44.021Z,100056.81
2022-11-12T19:51:13.600Z,100053.34
2022-11-12T19:53:46.135Z,100053.16
2022-11-12T19:56:17.211Z,100051.34
2022-11-12T19:58:46.021Z,100049.50
2022-11-12T20:01:16.284Z,100048.69
2022-11-12T20:03:43.999Z,100051.16
2022-11-12T20:06:13.844Z,100048.50
2022-11-12T20:08:41.904Z,100048.34
2022-11-12T20:11:10.038Z,100052.84
2022-11-12T20:13:37.776Z,100056.50
2022-11-12T20:16:10.092Z,100056.19
2022-11-12T20:18:37.687Z,100056.19
2022-11-12T20:21:05.401Z,100062.19
2022-11-12T20:23:33.968Z,100050.88
2022-11-12T20:26:12.215Z,100058.53
2022-11-12T20:28:41.870Z,100058.53
2022-11-12T20:31:13.895Z,100057.56
2022-11-12T20:33:42.702Z,100056.69
2022-11-12T20:36:13.115Z,100058.38
2022-11-12T20:38:43.105Z,100052.22
2022-11-12T20:41:14.425Z,100049.69
2022-11-12T20:43:42.239Z,100060.38
2022-11-12T20:46:13.282Z,100056.88
2022-11-12T20:48:43.329Z,100059.69
2022-11-12T20:51:23.679Z,100061.53
2022-11-12T20:53:59.208Z,100066.84
2022-11-12T20:56:28.268Z,100054.50
2022-11-12T20:58:56.075Z,100066.84
2022-11-12T21:01:24.914Z,100063.50
2022-11-12T21:03:52.692Z,100066.03
2022-11-12T21:06:22.262Z,100063.50
2022-11-12T21:08:50.285Z,100057.34
2022-11-12T21:11:21.199Z,100063.50
2022-11-12T21:13:49.006Z,100061.81
2022-11-12T21:16:16.474Z,100055.66
2022-11-12T21:18:44.207Z,100067.16
2022-11-12T21:21:14.389Z,100060.16
2022-11-12T21:23:43.582Z,100065.50
2022-11-12T21:26:13.594Z,100054.84
2022-11-12T21:28:49.115Z,100064.66
2022-11-12T21:31:20.089Z,100062.16
2022-11-12T21:33:52.171Z,100074.47
2022-11-12T21:36:20.904Z,100068.31
2022-11-12T21:38:48.955Z,100066.47
2022-11-12T21:41:19.014Z,100072.81
2022-11-12T21:43:47.613Z,100062.16
2022-11-12T21:46:25.401Z,100071.13
2022-11-12T21:48:55.289Z,100069.47
2022-11-12T21:51:28.537Z,100064.13
2022-11-12T21:53:58.988Z,100070.28
2022-11-12T21:56:27.762Z,100064.97
2022-11-12T21:59:00.353Z,100064.13
2022-11-12T22:01:30.542Z,100058.81
2022-11-12T22:03:59.450Z,100053.47
2022-11-12T22:06:29.555Z,100054.50
2022-11-12T22:08:58.217Z,100058.81
2022-11-12T22:11:26.236Z,100053.47
2022-11-12T22:13:54.016Z,100049.16
2022-11-12T22:16:23.683Z,100049.16
2022-11-12T22:18:53.400Z,100054.66
2022-11-12T22:21:26.979Z,100058.13
2022-11-12T22:23:55.972Z,100053.63
2022-11-12T22:26:26.637Z,100040.31
2022-11-12T22:28:55.688Z,100045.66
2022-11-12T22:31:29.444Z,100049.31
2022-11-12T22:34:00.355Z,100049.31
2022-11-12T22:36:30.264Z,100043.16
2022-11-12T22:38:58.118Z,100059.16
2022-11-12T22:41:28.304Z,100052.13
2022-11-12T22:43:59.872Z,100052.97
2022-11-12T22:46:33.659Z,100043.31
2022-11-12T22:49:02.077Z,100055.63
2022-11-12T22:51:32.160Z,100053.81
2022-11-12T22:54:04.690Z,100046.81
2022-11-12T22:56:35.459Z,100041.47
2022-11-12T22:59:06.210Z,100044.13
2022-11-12T23:01:35.738Z,100041.47
2022-11-12T23:04:05.578Z,100045.16
2022-11-12T23:06:33.283Z,100049.47
2022-11-12T23:09:01.547Z,100045.16
2022-11-12T23:11:28.854Z,100037.16
2022-11-12T23:13:56.508Z,100040.66
2022-11-12T23:16:30.605Z,100037.16
2022-11-12T23:18:59.256Z,100034.50
2022-11-12T23:21:29.067Z,100033.63
2022-11-12T23:23:57.983Z,100038.97
2022-11-12T23:26:27.980Z,100042.47
2022-11-12T23:28:55.520Z,100032.81
2022-11-12T23:31:25.531Z,100043.47
2022-11-12T23:33:54.773Z,100036.47
2022-11-12T23:36:23.743Z,100033.81
2022-11-12T23:38:51.833Z,100031.16
2022-11-12T23:41:28.448Z,100040.13
2022-11-12T23:43:57.795Z,100043.47
2022-11-12T23:46:25.056Z,100041.81
2022-11-12T23:48:52.379Z,100039.13
2022-11-12T23:51:21.404Z,100044.47
2022-11-12T23:53:49.083Z,100040.94
2022-11-12T23:56:18.688Z,100041.81
2022-11-12T23:58:46.755Z,100040.13
